Time;durP1;ratioP1;P1;durP2;ratioP2;P2;SDS_P1;SDS_P2;PMS_P1;PMS_P2;Temp;Humidity;BMP_temperature;BMP_pressure;BME280_temperature;BME280_humidity;BME280_pressure;Samples;Min_cycle;Max_cycle;Signal;HPM_P1;HPM_P2
2022/03/19 00:00:13;;;;;;;3.72;2.65;;;17.80;52.30;;;;;;5053793;28;20171;-67
2022/03/19 00:02:39;;;;;;;2.47;2.28;;;17.80;52.30;;;;;;5054787;28;20225;-67
2022/03/19 00:05:05;;;;;;;3.63;2.60;;;17.80;52.20;;;;;;5054798;28;20638;-67
2022/03/19 00:07:31;;;;;;;2.63;1.88;;;17.80;52.30;;;;;;5053696;28;20498;-66
2022/03/19 00:09:56;;;;;;;4.05;2.40;;;17.80;52.20;;;;;;5054504;28;20206;-67
2022/03/19 00:12:22;;;;;;;2.95;2.25;;;17.80;52.20;;;;;;5052872;28;20210;-69
2022/03/19 00:14:47;;;;;;;2.33;1.83;;;17.70;52.20;;;;;;5054036;28;20175;-68
2022/03/19 00:17:13;;;;;;;2.85;2.58;;;17.70;52.20;;;;;;5054261;28;20175;-68
2022/03/19 00:19:39;;;;;;;3.45;2.40;;;17.70;52.10;;;;;;5054632;28;20171;-67
2022/03/19 00:22:05;;;;;;;2.58;2.17;;;17.70;52.20;;;;;;5053716;28;20178;-68
2022/03/19 00:24:30;;;;;;;4.32;2.50;;;17.70;52.20;;;;;;5053038;28;20182;-67
2022/03/19 00:26:56;;;;;;;3.63;2.17;;;17.70;52.10;;;;;;5053258;28;20179;-68
2022/03/19 00:29:21;;;;;;;3.70;2.55;;;17.70;52.10;;;;;;5053353;28;20327;-68
2022/03/19 00:31:47;;;;;;;2.10;1.75;;;17.70;52.10;;;;;;5054083;28;20755;-67
2022/03/19 00:34:13;;;;;;;4.32;2.65;;;17.60;52.00;;;;;;5052876;28;20262;-66
2022/03/19 00:36:39;;;;;;;2.40;2.15;;;17.60;52.00;;;;;;5053369;28;20206;-66
2022/03/19 00:39:05;;;;;;;2.75;2.25;;;17.60;52.00;;;;;;5054175;28;20637;-67
2022/03/19 00:41:30;;;;;;;2.67;2.10;;;17.60;52.00;;;;;;5054037;28;20481;-68
2022/03/19 00:43:56;;;;;;;2.40;2.08;;;17.60;52.00;;;;;;5053454;28;20183;-68
2022/03/19 00:46:21;;;;;;;3.67;2.40;;;17.60;52.00;;;;;;5054885;28;20178;-68
2022/03/19 00:48:47;;;;;;;4.00;2.80;;;17.60;52.00;;;;;;5053900;28;20175;-67
2022/03/19 00:51:12;;;;;;;4.20;2.45;;;17.60;52.00;;;;;;5052684;28;20627;-67
2022/03/19 00:53:38;;;;;;;4.18;2.38;;;17.60;52.00;;;;;;5054085;28;20261;-67
2022/03/19 00:56:03;;;;;;;3.10;2.10;;;17.60;52.00;;;;;;5053589;28;20198;-66
2022/03/19 00:58:29;;;;;;;3.00;2.28;;;17.60;52.00;;;;;;5052930;28;20649;-67
2022/03/19 01:00:54;;;;;;;2.70;2.20;;;17.60;52.00;;;;;;5053858;28;20194;-66
2022/03/19 01:03:20;;;;;;;1.95;1.75;;;17.60;52.10;;;;;;5053328;28;20210;-67
2022/03/19 01:05:46;;;;;;;3.20;2.25;;;17.60;52.00;;;;;;5053013;28;20183;-67
2022/03/19 01:08:11;;;;;;;4.05;2.42;;;17.50;52.00;;;;;;5053569;28;20531;-67
2022/03/19 01:10:37;;;;;;;3.22;2.10;;;17.50;52.00;;;;;;5052748;28;20167;-67
2022/03/19 01:13:03;;;;;;;2.55;2.13;;;17.50;52.00;;;;;;5053599;28;20226;-69
2022/03/19 01:15:29;;;;;;;3.08;2.17;;;17.50;52.00;;;;;;5053094;28;20207;-68
2022/03/19 01:17:54;;;;;;;3.28;2.08;;;17.50;52.00;;;;;;5052695;28;20213;-67
2022/03/19 01:20:20;;;;;;;2.72;2.00;;;17.50;52.00;;;;;;5053069;28;20170;-68
2022/03/19 01:22:46;;;;;;;3.40;2.35;;;17.50;52.00;;;;;;5053212;28;20576;-71
2022/03/19 01:25:12;;;;;;;3.97;2.53;;;17.50;52.10;;;;;;5052530;28;20257;-68
2022/03/19 01:27:41;;;;;;;2.38;1.95;;;17.50;52.00;;;;;;5053389;28;20262;-68
2022/03/19 01:30:07;;;;;;;2.88;1.98;;;17.50;52.00;;;;;;5052966;28;20234;-68
2022/03/19 01:32:33;;;;;;;2.65;2.38;;;17.50;52.00;;;;;;5052539;28;20242;-69
2022/03/19 01:34:59;;;;;;;2.88;2.10;;;17.50;52.10;;;;;;5053092;28;20186;-68
2022/03/19 01:37:24;;;;;;;4.00;2.33;;;17.50;52.10;;;;;;5052934;28;20179;-68
2022/03/19 01:39:53;;;;;;;2.40;1.80;;;17.40;52.00;;;;;;5052380;28;20178;-66
2022/03/19 01:42:23;;;;;;;3.28;2.17;;;17.40;52.10;;;;;;5052593;28;20250;-67
2022/03/19 01:44:52;;;;;;;2.92;1.80;;;17.40;52.00;;;;;;5051455;28;20214;-68
2022/03/19 01:47:17;;;;;;;4.50;2.58;;;17.40;52.10;;;;;;5051806;28;20180;-67
2022/03/19 01:49:43;;;;;;;2.75;2.20;;;17.40;52.00;;;;;;5052790;28;20182;-68
2022/03/19 01:52:08;;;;;;;4.80;1.95;;;17.40;52.00;;;;;;5052396;28;20218;-68
2022/03/19 01:54:35;;;;;;;3.67;1.95;;;17.40;52.10;;;;;;5051816;28;20171;-67
2022/03/19 01:57:01;;;;;;;2.88;1.90;;;17.40;52.10;;;;;;5052497;28;20313;-68
2022/03/19 01:59:30;;;;;;;2.63;1.95;;;17.40;52.00;;;;;;5051086;28;20204;-68
2022/03/19 02:01:56;;;;;;;4.43;2.33;;;17.40;52.10;;;;;;5050472;28;20199;-66
2022/03/19 02:04:21;;;;;;;3.38;1.92;;;17.40;52.10;;;;;;5051014;28;20622;-66
2022/03/19 02:06:47;;;;;;;2.20;1.95;;;17.50;52.20;;;;;;5051714;28;20272;-67
2022/03/19 02:09:13;;;;;;;3.35;1.98;;;17.40;52.20;;;;;;5052070;28;20171;-68
2022/03/19 02:11:39;;;;;;;3.58;2.00;;;17.40;52.10;;;;;;5052091;28;20345;-68
2022/03/19 02:14:04;;;;;;;2.47;1.80;;;17.40;52.20;;;;;;5051514;28;20183;-68
2022/03/19 02:16:30;;;;;;;2.08;1.75;;;17.40;52.70;;;;;;5051793;28;20704;-67
2022/03/19 02:18:59;;;;;;;4.38;2.45;;;17.30;52.10;;;;;;5052413;28;20178;-68
2022/03/19 02:21:25;;;;;;;3.85;2.28;;;17.30;52.10;;;;;;5051178;28;20190;-68
2022/03/19 02:26:43;;;;;;;2.50;1.90;;;17.30;52.20;;;;;;5052061;28;20531;-68
2022/03/19 02:29:09;;;;;;;2.63;1.98;;;17.30;52.20;;;;;;5050954;28;20541;-68
2022/03/19 02:31:35;;;;;;;3.00;2.13;;;17.30;52.20;;;;;;5052023;28;20203;-68
2022/03/19 02:34:01;;;;;;;3.38;2.20;;;17.30;52.10;;;;;;5052218;28;20181;-67
2022/03/19 02:36:26;;;;;;;2.22;1.80;;;17.30;52.10;;;;;;5050997;28;20191;-67
2022/03/19 02:38:51;;;;;;;3.63;1.90;;;17.30;52.10;;;;;;5051849;28;20171;-67
2022/03/19 02:41:17;;;;;;;3.60;1.90;;;17.30;52.20;;;;;;5051499;28;20194;-68
2022/03/19 02:43:42;;;;;;;3.75;2.03;;;17.30;52.10;;;;;;5050969;28;20167;-68
2022/03/19 02:46:08;;;;;;;3.47;2.30;;;17.30;52.20;;;;;;5051653;28;20183;-68
2022/03/19 02:48:34;;;;;;;2.78;2.15;;;17.30;52.10;;;;;;5051926;28;20167;-68
2022/03/19 02:51:00;;;;;;;3.08;2.10;;;17.20;52.10;;;;;;5051037;28;20249;-68
2022/03/19 02:53:25;;;;;;;4.05;2.13;;;17.20;52.00;;;;;;5051253;28;20557;-68
2022/03/19 02:55:51;;;;;;;4.03;2.08;;;17.20;52.10;;;;;;5051453;28;20186;-67
2022/03/19 02:58:16;;;;;;;3.78;2.08;;;17.20;52.00;;;;;;5050029;28;20213;-67
2022/03/19 03:00:42;;;;;;;2.53;1.63;;;17.20;52.00;;;;;;5051898;28;20579;-67
2022/03/19 03:03:07;;;;;;;2.47;1.90;;;17.20;52.10;;;;;;5050449;28;20637;-67
2022/03/19 03:05:34;;;;;;;3.92;1.83;;;17.20;52.10;;;;;;5050230;28;20171;-67
2022/03/19 03:08:00;;;;;;;2.53;2.17;;;17.10;52.00;;;;;;5051546;28;20186;-67
2022/03/19 03:10:25;;;;;;;3.72;1.85;;;17.20;52.10;;;;;;5050350;28;20253;-67
2022/03/19 03:12:51;;;;;;;3.45;2.00;;;17.20;52.10;;;;;;5049903;28;20277;-69
2022/03/19 03:15:16;;;;;;;4.25;2.05;;;17.20;52.10;;;;;;5051057;28;20653;-68
2022/03/19 03:17:42;;;;;;;2.78;1.88;;;17.20;52.10;;;;;;5050744;28;20183;-68
2022/03/19 03:20:08;;;;;;;3.55;1.95;;;17.20;52.70;;;;;;5051189;28;20171;-67
2022/03/19 03:22:33;;;;;;;2.95;1.83;;;17.20;52.10;;;;;;5052103;28;20179;-68
2022/03/19 03:24:59;;;;;;;1.95;1.67;;;17.20;52.10;;;;;;5050339;28;20170;-68
2022/03/19 03:27:24;;;;;;;3.00;2.00;;;17.20;52.10;;;;;;5051993;28;20202;-69
2022/03/19 03:29:50;;;;;;;2.63;1.90;;;17.10;52.10;;;;;;5052473;28;20654;-67
2022/03/19 03:32:15;;;;;;;2.72;1.48;;;17.20;52.10;;;;;;5051316;28;20219;-68
2022/03/19 03:34:41;;;;;;;3.25;1.65;;;17.10;52.10;;;;;;5052385;28;20264;-66
2022/03/19 03:37:07;;;;;;;2.70;1.70;;;17.10;52.10;;;;;;5051948;28;20171;-67
2022/03/19 03:39:33;;;;;;;2.25;1.85;;;17.10;52.10;;;;;;5050309;28;20178;-67
2022/03/19 03:41:58;;;;;;;3.80;2.13;;;17.10;52.10;;;;;;5052093;28;20278;-67
2022/03/19 03:44:24;;;;;;;3.92;1.98;;;17.10;52.10;;;;;;5051742;28;20163;-67
2022/03/19 03:46:49;;;;;;;2.80;1.90;;;17.10;52.10;;;;;;5051582;28;20199;-67
2022/03/19 03:49:15;;;;;;;4.32;1.90;;;17.10;52.10;;;;;;5051711;28;20626;-68
2022/03/19 03:51:40;;;;;;;1.95;1.67;;;17.10;52.20;;;;;;5052210;28;20218;-68
2022/03/19 03:54:06;;;;;;;3.50;2.20;;;17.10;52.10;;;;;;5050055;28;20309;-68
2022/03/19 03:56:32;;;;;;;2.80;1.85;;;17.00;52.00;;;;;;5052207;28;20275;-68
2022/03/19 03:58:57;;;;;;;2.78;2.08;;;17.10;52.10;;;;;;5050663;28;20637;-67
2022/03/19 04:01:23;;;;;;;2.88;2.05;;;17.10;52.10;;;;;;5051214;28;20190;-67
2022/03/19 04:03:48;;;;;;;2.70;1.58;;;17.10;52.20;;;;;;5052293;28;20171;-66
2022/03/19 04:06:14;;;;;;;2.03;1.73;;;17.10;52.20;;;;;;5051837;28;20178;-67
2022/03/19 04:08:39;;;;;;;3.00;1.98;;;17.00;52.00;;;;;;5051668;28;20182;-67
2022/03/19 04:11:05;;;;;;;2.42;1.77;;;17.10;52.10;;;;;;5055593;28;20625;-68
2022/03/19 04:13:30;;;;;;;3.55;2.00;;;17.00;52.10;;;;;;5055010;28;20233;-68
2022/03/19 04:15:56;;;;;;;3.70;2.00;;;17.00;52.00;;;;;;5055443;28;20167;-67
2022/03/19 04:18:21;;;;;;;2.88;1.70;;;17.00;52.10;;;;;;5055454;28;20171;-68
2022/03/19 04:20:47;;;;;;;5.18;1.95;;;17.00;52.10;;;;;;5054998;28;20179;-68
2022/03/19 04:23:13;;;;;;;2.50;1.80;;;17.00;52.10;;;;;;5054968;28;20183;-68
2022/03/19 04:25:38;;;;;;;2.75;1.70;;;17.00;52.10;;;;;;5055356;28;20171;-68
2022/03/19 04:28:04;;;;;;;3.00;2.22;;;17.00;52.10;;;;;;5054465;28;20175;-68
2022/03/19 04:30:29;;;;;;;3.08;1.77;;;17.00;52.10;;;;;;5055145;28;20676;-69
2022/03/19 04:33:00;;;;;;;2.97;2.10;;;17.00;52.20;;;;;;5055293;28;20211;-68
2022/03/19 04:38:12;;;;;;;6.63;2.25;;;17.00;52.20;;;;;;5054762;28;20194;-67
2022/03/19 04:40:37;;;;;;;2.22;1.65;;;17.00;52.10;;;;;;5055290;28;20221;-67
2022/03/19 04:43:03;;;;;;;3.60;1.80;;;17.00;52.10;;;;;;5054597;28;20167;-68
2022/03/19 04:45:29;;;;;;;3.10;2.03;;;16.90;52.10;;;;;;5054588;28;20179;-68
2022/03/19 04:47:54;;;;;;;2.13;1.60;;;16.90;52.10;;;;;;5054941;28;20190;-68
2022/03/19 04:50:20;;;;;;;3.13;1.75;;;16.90;52.10;;;;;;5053889;28;20194;-68
2022/03/19 04:52:46;;;;;;;2.28;1.92;;;16.90;52.10;;;;;;5054681;28;20211;-68
2022/03/19 04:55:11;;;;;;;3.00;1.98;;;16.90;52.10;;;;;;5053280;28;20167;-68
2022/03/19 04:57:37;;;;;;;3.88;1.98;;;16.90;52.10;;;;;;5053964;28;20226;-67
2022/03/19 05:00:04;;;;;;;3.40;1.80;;;16.90;52.10;;;;;;5054825;28;20233;-67
2022/03/19 05:02:30;;;;;;;3.17;1.80;;;16.90;52.10;;;;;;5054425;28;20187;-67
2022/03/19 05:04:55;;;;;;;2.88;2.00;;;16.90;52.10;;;;;;5053900;28;20198;-67
2022/03/19 05:07:21;;;;;;;4.25;2.30;;;16.90;52.10;;;;;;5054220;28;20187;-67
2022/03/19 05:12:32;;;;;;;3.58;2.08;;;16.90;52.10;;;;;;5054645;28;20595;-68
2022/03/19 05:14:58;;;;;;;2.92;1.75;;;16.90;52.20;;;;;;5054525;28;20174;-68
2022/03/19 05:17:24;;;;;;;2.50;1.73;;;16.90;52.10;;;;;;5053301;28;20171;-68
2022/03/19 05:19:49;;;;;;;3.58;1.98;;;16.90;52.10;;;;;;5053871;28;20203;-68
2022/03/19 05:22:15;;;;;;;4.15;2.05;;;16.80;52.00;;;;;;5053937;28;20179;-68
2022/03/19 05:24:41;;;;;;;2.80;1.70;;;16.80;52.10;;;;;;5053478;28;20175;-67
2022/03/19 05:27:08;;;;;;;2.72;1.70;;;16.80;52.10;;;;;;5054160;28;20642;-68
2022/03/19 05:29:33;;;;;;;2.85;2.20;;;16.80;52.00;;;;;;5053020;28;20186;-67
2022/03/19 05:31:59;;;;;;;3.22;2.03;;;16.80;52.00;;;;;;5053383;28;20210;-68
2022/03/19 05:34:30;;;;;;;2.65;1.95;;;16.80;52.00;;;;;;5053773;28;20175;-67
2022/03/19 05:37:00;;;;;;;2.22;1.88;;;16.80;52.10;;;;;;5054199;28;20522;-68
2022/03/19 05:39:26;;;;;;;2.28;1.50;;;16.80;52.10;;;;;;5053230;28;20187;-67
2022/03/19 05:41:52;;;;;;;2.22;1.88;;;16.80;52.20;;;;;;5054043;28;20179;-67
2022/03/19 05:44:17;;;;;;;2.67;1.70;;;16.80;52.20;;;;;;5053631;28;20269;-68
2022/03/19 05:46:43;;;;;;;3.78;1.80;;;16.80;52.20;;;;;;5053117;28;20634;-68
2022/03/19 05:49:08;;;;;;;3.63;1.77;;;16.80;52.10;;;;;;5053312;28;20175;-68
2022/03/19 05:51:34;;;;;;;2.33;1.45;;;16.80;52.20;;;;;;5053851;28;20167;-68
2022/03/19 05:53:59;;;;;;;2.65;1.67;;;16.80;52.20;;;;;;5053284;28;20180;-68
2022/03/19 05:56:25;;;;;;;3.13;1.98;;;16.80;52.20;;;;;;5053249;28;20227;-69
2022/03/19 05:58:51;;;;;;;3.10;1.90;;;16.70;52.10;;;;;;5053039;28;20175;-68
2022/03/19 06:01:17;;;;;;;2.97;2.05;;;16.70;52.20;;;;;;5053327;28;20182;-67
2022/03/19 06:03:42;;;;;;;2.92;1.77;;;16.70;52.10;;;;;;5053533;28;20207;-67
2022/03/19 06:06:08;;;;;;;4.72;1.88;;;16.80;52.20;;;;;;5052297;28;20183;-67
2022/03/19 06:08:33;;;;;;;3.17;1.70;;;16.70;52.20;;;;;;5053512;28;20179;-67
2022/03/19 06:10:59;;;;;;;2.83;1.55;;;16.70;52.10;;;;;;5053498;28;20172;-69
2022/03/19 06:13:26;;;;;;;2.80;1.63;;;16.70;52.10;;;;;;5052267;28;20246;-68
2022/03/19 06:15:51;;;;;;;2.75;1.80;;;16.70;52.20;;;;;;5053266;28;20195;-69
2022/03/19 06:18:17;;;;;;;1.83;1.63;;;16.70;52.10;;;;;;5052838;28;20174;-68
2022/03/19 06:20:43;;;;;;;2.92;2.00;;;16.70;52.10;;;;;;5053019;28;20167;-68
2022/03/19 06:23:08;;;;;;;3.60;1.92;;;16.80;52.10;;;;;;5053019;28;20597;-69
2022/03/19 06:25:35;;;;;;;2.25;2.00;;;16.70;52.10;;;;;;5053199;28;20236;-68
2022/03/19 06:28:03;;;;;;;3.03;1.83;;;16.70;52.10;;;;;;5052450;28;20269;-69
2022/03/19 06:30:31;;;;;;;4.03;2.13;;;16.70;52.10;;;;;;5052738;28;20183;-69
2022/03/19 06:32:58;;;;;;;2.97;1.70;;;16.70;52.00;;;;;;5051983;28;20222;-70
2022/03/19 06:38:09;;;;;;;2.13;1.70;;;16.70;52.00;;;;;;5052623;28;20209;-67
2022/03/19 06:40:35;;;;;;;2.00;1.67;;;16.70;52.10;;;;;;5052984;28;20642;-68
2022/03/19 06:43:01;;;;;;;2.40;2.03;;;16.70;52.10;;;;;;5052063;28;20550;-68
2022/03/19 06:45:26;;;;;;;3.60;1.88;;;16.70;52.00;;;;;;5052431;28;20178;-68
2022/03/19 06:47:52;;;;;;;3.08;1.85;;;16.70;52.10;;;;;;5053027;28;20175;-69
2022/03/19 06:50:17;;;;;;;2.53;1.75;;;16.70;52.60;;;;;;5051630;28;20175;-68
2022/03/19 06:52:43;;;;;;;3.45;1.75;;;16.70;51.90;;;;;;5052573;28;20735;-68
2022/03/19 06:55:09;;;;;;;3.03;1.73;;;16.80;52.00;;;;;;5051762;28;20202;-69
2022/03/19 06:57:34;;;;;;;2.78;1.92;;;16.80;51.90;;;;;;5052387;28;20277;-68
2022/03/19 07:00:00;;;;;;;2.28;1.40;;;16.80;51.90;;;;;;5052671;28;20171;-67
2022/03/19 07:02:25;;;;;;;2.47;1.60;;;16.80;51.90;;;;;;5051685;28;20183;-67
2022/03/19 07:04:51;;;;;;;3.38;1.90;;;16.80;51.80;;;;;;5052429;28;20190;-67
2022/03/19 07:07:17;;;;;;;2.15;1.50;;;16.80;51.80;;;;;;5052253;28;20646;-67
2022/03/19 07:09:43;;;;;;;3.30;1.63;;;16.80;51.70;;;;;;5051898;28;20187;-68
2022/03/19 07:12:11;;;;;;;2.90;1.83;;;16.90;51.80;;;;;;5052039;28;20673;-68
2022/03/19 07:14:40;;;;;;;3.10;1.60;;;16.90;51.80;;;;;;5051170;28;20274;-68
2022/03/19 07:17:07;;;;;;;3.53;2.10;;;16.90;51.70;;;;;;5051616;28;20183;-69
2022/03/19 07:19:32;;;;;;;3.25;1.50;;;16.90;51.70;;;;;;5052536;28;20167;-68
2022/03/19 07:21:58;;;;;;;3.72;1.90;;;16.90;51.60;;;;;;5052460;28;20610;-69
2022/03/19 07:24:23;;;;;;;2.40;1.80;;;16.90;51.70;;;;;;5051381;28;20167;-68
2022/03/19 07:26:49;;;;;;;3.30;1.70;;;17.00;51.70;;;;;;5052284;28;20202;-68
2022/03/19 07:29:18;;;;;;;2.53;1.63;;;17.00;51.50;;;;;;5052029;28;20198;-69
2022/03/19 07:31:44;;;;;;;2.65;1.70;;;17.00;51.30;;;;;;5051681;28;20286;-70
2022/03/19 07:34:10;;;;;;;3.35;1.73;;;17.10;51.20;;;;;;5051879;28;20211;-68
2022/03/19 07:36:35;;;;;;;3.40;2.10;;;17.20;51.20;;;;;;5052240;28;20171;-67
2022/03/19 07:39:01;;;;;;;2.10;1.52;;;17.30;51.20;;;;;;5051472;28;20175;-67
2022/03/19 07:44:11;;;;;;;2.38;1.55;;;17.70;50.90;;;;;;5054819;28;20178;-68
2022/03/19 07:46:42;;;;;;;1.88;1.40;;;18.00;50.70;;;;;;5055516;28;20171;-68
2022/03/19 07:49:07;;;;;;;1.55;1.38;;;18.30;50.20;;;;;;5056016;28;20183;-68
2022/03/19 07:51:33;;;;;;;1.92;1.45;;;18.50;49.70;;;;;;5055487;28;20206;-68
2022/03/19 07:53:58;;;;;;;2.05;1.00;;;18.70;49.40;;;;;;5055965;28;20244;-68
2022/03/19 07:56:24;;;;;;;2.08;1.40;;;18.70;49.40;;;;;;5055441;28;20777;-68
2022/03/19 07:58:50;;;;;;;2.50;1.45;;;18.70;49.30;;;;;;5055153;28;20195;-68
2022/03/19 08:01:19;;;;;;;2.25;1.30;;;18.80;49.40;;;;;;5055649;28;20518;-67
2022/03/19 08:03:45;;;;;;;1.95;1.30;;;18.90;49.20;;;;;;5056028;28;20552;-66
2022/03/19 08:06:11;;;;;;;2.30;1.50;;;19.00;49.10;;;;;;5054675;28;20183;-67
2022/03/19 08:08:37;;;;;;;2.55;1.50;;;19.10;49.00;;;;;;5055636;28;20178;-68
2022/03/19 08:11:03;;;;;;;1.77;1.42;;;19.20;48.80;;;;;;5055732;28;20692;-68
2022/03/19 08:13:28;;;;;;;2.35;1.30;;;19.20;48.50;;;;;;5054433;28;20215;-68
2022/03/19 08:15:54;;;;;;;1.92;1.50;;;19.20;48.80;;;;;;5055722;28;20173;-68
2022/03/19 08:18:20;;;;;;;2.22;1.23;;;19.00;49.00;;;;;;5053976;28;20179;-68
2022/03/19 08:20:46;;;;;;;2.75;1.65;;;19.00;49.20;;;;;;5053588;28;20537;-68
2022/03/19 08:23:12;;;;;;;2.22;1.25;;;18.80;49.30;;;;;;5055024;28;20266;-68
2022/03/19 08:25:38;;;;;;;3.17;1.80;;;18.80;49.50;;;;;;5055555;28;20191;-68
2022/03/19 08:28:04;;;;;;;2.55;1.40;;;18.80;49.70;;;;;;5054804;28;20576;-68
2022/03/19 08:30:29;;;;;;;2.08;1.35;;;18.70;49.80;;;;;;5055202;28;20662;-68
2022/03/19 08:32:55;;;;;;;2.60;1.67;;;18.70;50.00;;;;;;5055250;28;20228;-68
2022/03/19 08:35:20;;;;;;;2.75;1.45;;;18.60;50.00;;;;;;5054214;28;20175;-67
2022/03/19 08:37:46;;;;;;;3.08;1.58;;;18.60;50.20;;;;;;5055028;28;20533;-70
2022/03/19 08:40:18;;;;;;;3.10;1.52;;;18.60;50.30;;;;;;5054959;28;20182;-69
2022/03/19 08:42:53;;;;;;;3.20;1.45;;;18.50;50.50;;;;;;5054501;28;20185;-67
2022/03/19 08:45:20;;;;;;;2.38;1.55;;;18.60;50.80;;;;;;5054827;28;20206;-70
2022/03/19 08:47:45;;;;;;;4.97;1.48;;;18.50;50.80;;;;;;5054533;28;20190;-71
2022/03/19 08:50:11;;;;;;;3.30;1.65;;;18.60;50.90;;;;;;5054686;28;20171;-69
2022/03/19 08:52:36;;;;;;;3.72;1.80;;;18.50;51.00;;;;;;5055052;28;20207;-71
2022/03/19 08:55:03;;;;;;;5.20;1.90;;;18.50;51.20;;;;;;5053246;28;20226;-73
2022/03/19 08:57:29;;;;;;;4.15;1.55;;;18.50;51.30;;;;;;5054278;28;20223;-71
2022/03/19 08:59:54;;;;;;;2.75;1.65;;;18.50;51.40;;;;;;5054747;28;20175;-74
2022/03/19 09:02:20;;;;;;;4.63;1.85;;;18.50;51.50;;;;;;5053451;28;20642;-70
2022/03/19 09:04:45;;;;;;;3.00;1.50;;;18.60;51.50;;;;;;5053341;28;20182;-66
2022/03/19 09:07:13;;;;;;;5.05;1.67;;;18.60;51.70;;;;;;5054503;28;20183;-68
2022/03/19 09:09:39;;;;;;;3.17;2.00;;;18.50;51.70;;;;;;5054113;28;20194;-70
2022/03/19 09:12:05;;;;;;;6.32;1.85;;;18.60;51.70;;;;;;5054321;28;20214;-70
2022/03/19 09:14:30;;;;;;;5.05;1.60;;;18.50;51.70;;;;;;5054195;28;20547;-71
2022/03/19 09:16:56;;;;;;;3.55;1.55;;;18.60;51.80;;;;;;5053639;28;20175;-73
2022/03/19 09:19:23;;;;;;;2.58;1.73;;;18.60;51.80;;;;;;5054037;28;20646;-72
2022/03/19 09:21:48;;;;;;;3.13;1.58;;;18.60;51.80;;;;;;5054194;28;20645;-71
2022/03/19 09:24:15;;;;;;;1.80;1.45;;;18.60;51.90;;;;;;5053635;28;20275;-67
2022/03/19 09:26:40;;;;;;;5.70;1.85;;;18.60;51.80;;;;;;5054355;28;20199;-68
2022/03/19 09:29:06;;;;;;;3.42;1.23;;;18.60;51.90;;;;;;5054072;28;20198;-70
2022/03/19 09:31:32;;;;;;;7.43;1.83;;;18.60;51.80;;;;;;5053451;28;20178;-74
2022/03/19 09:33:57;;;;;;;5.72;1.60;;;18.60;51.90;;;;;;5054019;28;20696;-73
2022/03/19 09:36:24;;;;;;;5.43;2.13;;;18.70;51.90;;;;;;5053814;28;20225;-74
2022/03/19 09:38:49;;;;;;;4.78;2.00;;;18.70;51.70;;;;;;5053261;28;20266;-70
2022/03/19 09:41:15;;;;;;;3.25;1.30;;;18.70;51.70;;;;;;5053694;28;20262;-73
2022/03/19 09:43:41;;;;;;;5.13;1.70;;;18.70;51.60;;;;;;5053911;28;20171;-69
2022/03/19 09:46:07;;;;;;;5.88;1.75;;;18.70;51.40;;;;;;5052837;28;20630;-68
2022/03/19 09:48:32;;;;;;;4.38;1.90;;;18.70;51.10;;;;;;5053874;28;20225;-68
2022/03/19 09:50:58;;;;;;;3.78;1.50;;;18.70;50.70;;;;;;5053332;28;20198;-72
2022/03/19 09:53:24;;;;;;;5.28;1.85;;;18.70;50.70;;;;;;5053270;28;20213;-71
2022/03/19 09:55:53;;;;;;;3.50;1.60;;;18.70;50.60;;;;;;5053586;28;20175;-72
2022/03/19 09:58:19;;;;;;;3.85;1.80;;;18.70;50.60;;;;;;5052757;28;20191;-73
2022/03/19 10:00:44;;;;;;;7.00;1.95;;;18.80;50.60;;;;;;5053503;28;20179;-73
2022/03/19 10:03:11;;;;;;;3.42;1.60;;;18.80;50.60;;;;;;5053139;28;20186;-74
2022/03/19 10:08:37;;;;;;;5.68;1.88;;;18.80;50.60;;;;;;5053186;28;20261;-71
2022/03/19 10:11:09;;;;;;;4.05;2.38;;;18.90;50.60;;;;;;5053518;28;20182;-69
2022/03/19 10:13:37;;;;;;;7.18;1.70;;;18.90;50.50;;;;;;5052527;28;20214;-68
2022/03/19 10:16:02;;;;;;;2.88;1.77;;;18.80;50.60;;;;;;5053481;28;20176;-69
2022/03/19 10:18:31;;;;;;;3.58;1.80;;;18.80;50.60;;;;;;5051795;28;20179;-67
2022/03/19 10:21:01;;;;;;;4.30;1.70;;;18.80;50.70;;;;;;5052434;28;20171;-67
2022/03/19 10:23:32;;;;;;;3.25;1.58;;;18.90;50.80;;;;;;5052762;28;20646;-67
2022/03/19 10:25:57;;;;;;;3.40;1.48;;;18.90;51.50;;;;;;5053130;28;20241;-67
2022/03/19 10:28:33;;;;;;;2.83;1.65;;;18.90;50.80;;;;;;5051799;28;20672;-68
2022/03/19 10:30:58;;;;;;;5.20;1.55;;;18.90;50.90;;;;;;5053196;28;20262;-68
2022/03/19 10:33:28;;;;;;;2.13;1.30;;;19.00;50.90;;;;;;5051740;28;20999;-66
2022/03/19 10:36:07;;;;;;;4.55;1.60;;;19.00;50.90;;;;;;5053097;28;20184;-65
2022/03/19 10:38:40;;;;;;;5.22;1.70;;;19.00;50.90;;;;;;5052829;28;20201;-67
2022/03/19 10:41:05;;;;;;;2.72;1.42;;;19.00;50.80;;;;;;5052173;28;20191;-67
2022/03/19 10:43:31;;;;;;;3.90;1.30;;;19.00;50.50;;;;;;5052832;28;20237;-66
2022/03/19 10:45:57;;;;;;;5.70;1.40;;;19.00;50.70;;;;;;5051451;28;20179;-66
2022/03/19 10:48:24;;;;;;;3.15;1.35;;;19.10;50.70;;;;;;5050384;28;20210;-67
2022/03/19 10:50:50;;;;;;;6.28;1.48;;;19.10;50.80;;;;;;5052625;28;20179;-67
2022/03/19 10:53:15;;;;;;;2.40;1.38;;;19.10;50.70;;;;;;5052119;28;20272;-67
2022/03/19 10:55:41;;;;;;;4.80;1.75;;;19.00;50.80;;;;;;5050856;28;20174;-67
2022/03/19 10:58:08;;;;;;;3.08;1.33;;;19.10;50.80;;;;;;5052087;28;20226;-66
2022/03/19 11:00:35;;;;;;;2.67;1.25;;;19.10;50.70;;;;;;5052717;28;20233;-66
2022/03/19 11:03:01;;;;;;;3.30;1.40;;;19.10;50.80;;;;;;5052017;28;20216;-66
2022/03/19 11:05:28;;;;;;;2.50;1.50;;;19.10;50.70;;;;;;5051020;28;20186;-66
2022/03/19 11:07:53;;;;;;;3.35;1.45;;;19.20;50.80;;;;;;5051351;28;20213;-66
2022/03/19 11:10:22;;;;;;;4.07;1.30;;;19.20;50.70;;;;;;5050430;28;20175;-67
2022/03/19 11:12:50;;;;;;;2.03;1.20;;;19.20;50.60;;;;;;5051350;28;20206;-67
2022/03/19 11:15:18;;;;;;;3.85;1.10;;;19.20;50.60;;;;;;5052104;28;20250;-67
2022/03/19 11:17:44;;;;;;;4.03;1.20;;;19.20;50.70;;;;;;5053669;28;20250;-68
2022/03/19 11:20:11;;;;;;;1.98;1.00;;;19.20;50.60;;;;;;5058749;28;20240;-68
2022/03/19 11:22:52;;;;;;;3.10;0.98;;;19.20;50.60;;;;;;5058344;28;20179;-67
2022/03/19 11:25:26;;;;;;;2.85;1.50;;;19.20;50.60;;;;;;5057628;28;20175;-68
2022/03/19 11:28:03;;;;;;;3.70;1.40;;;19.20;50.60;;;;;;5057911;28;20183;-67
2022/03/19 11:31:01;;;;;;;1.48;1.20;;;19.20;50.60;;;;;;5056858;28;20308;-67
2022/03/19 11:33:30;;;;;;;1.95;1.20;;;19.30;50.80;;;;;;5058704;28;20222;-65
2022/03/19 11:35:58;;;;;;;2.05;1.20;;;19.20;50.60;;;;;;5058937;28;20175;-65
2022/03/19 11:38:24;;;;;;;3.42;1.30;;;19.30;50.50;;;;;;5058048;28;20178;-65
2022/03/19 11:40:55;;;;;;;4.10;1.30;;;19.30;50.40;;;;;;5058858;28;20194;-68
2022/03/19 11:43:26;;;;;;;3.30;1.15;;;19.20;50.20;;;;;;5058544;28;20271;-68
2022/03/19 11:46:03;;;;;;;4.50;1.25;;;19.30;50.10;;;;;;5058582;28;20713;-71
2022/03/19 11:48:34;;;;;;;7.57;1.48;;;19.30;50.00;;;;;;5058641;28;20187;-70
2022/03/19 11:51:33;;;;;;;4.82;1.92;;;19.40;49.90;;;;;;5058036;28;20178;-70
2022/03/19 11:54:12;;;;;;;4.65;1.42;;;19.40;50.00;;;;;;5051460;28;20225;-69
2022/03/19 11:56:41;;;;;;;5.63;1.40;;;19.40;50.00;;;;;;5058515;28;20231;-70
2022/03/19 11:59:21;;;;;;;1.75;0.95;;;19.40;50.00;;;;;;5057731;28;20178;-72
2022/03/19 12:01:48;;;;;;;5.25;1.42;;;19.40;49.90;;;;;;5058677;28;20270;-69
2022/03/19 12:04:14;;;;;;;3.10;1.30;;;19.50;49.90;;;;;;5058584;28;20377;-69
2022/03/19 12:06:53;;;;;;;3.17;1.13;;;19.50;49.80;;;;;;5057966;28;20198;-68
2022/03/19 12:09:31;;;;;;;3.75;1.40;;;19.50;49.70;;;;;;5058554;28;20177;-68
2022/03/19 12:12:17;;;;;;;3.03;1.25;;;19.50;49.60;;;;;;5058010;28;20205;-70
2022/03/19 12:14:43;;;;;;;3.55;1.13;;;19.50;49.60;;;;;;5058824;28;20171;-69
2022/03/19 12:17:27;;;;;;;6.40;0.98;;;19.60;49.60;;;;;;5058434;28;20182;-71
2022/03/19 12:20:03;;;;;;;5.35;1.00;;;19.60;49.70;;;;;;5057958;28;20202;-69
2022/03/19 12:22:39;;;;;;;2.17;1.17;;;19.50;49.70;;;;;;5058314;28;20267;-70
2022/03/19 12:25:23;;;;;;;2.58;1.20;;;19.60;49.80;;;;;;5058629;28;20178;-69
2022/03/19 12:27:53;;;;;;;3.05;1.35;;;19.50;49.70;;;;;;5056835;28;20186;-73
2022/03/19 12:30:20;;;;;;;5.20;1.40;;;19.60;49.80;;;;;;5054693;28;20248;-71
2022/03/19 12:32:54;;;;;;;4.85;0.95;;;19.50;49.70;;;;;;5054656;28;20219;-69
2022/03/19 12:35:24;;;;;;;1.90;1.00;;;19.50;49.80;;;;;;5054973;28;20179;-69
2022/03/19 12:37:56;;;;;;;3.35;1.20;;;19.60;49.80;;;;;;5055444;28;20194;-69
2022/03/19 12:40:24;;;;;;;3.42;1.40;;;19.50;49.80;;;;;;5054109;28;20653;-67
2022/03/19 12:42:51;;;;;;;4.78;1.10;;;19.60;49.90;;;;;;5055253;28;20190;-67
2022/03/19 12:45:17;;;;;;;7.07;1.13;;;19.60;49.90;;;;;;5054805;28;20630;-69
2022/03/19 12:47:42;;;;;;;2.88;1.00;;;19.50;49.90;;;;;;5054452;28;20187;-68
2022/03/19 12:50:08;;;;;;;2.30;0.93;;;19.50;49.90;;;;;;5054705;28;20168;-68
2022/03/19 12:52:33;;;;;;;2.63;1.20;;;19.60;50.00;;;;;;5054853;28;20316;-68
2022/03/19 12:55:00;;;;;;;1.70;1.00;;;19.60;49.80;;;;;;5053252;28;20779;-69
2022/03/19 12:57:25;;;;;;;2.58;1.00;;;19.60;49.90;;;;;;5054440;28;20245;-67
2022/03/19 12:59:55;;;;;;;2.58;1.02;;;19.60;49.80;;;;;;5053603;28;20274;-69
2022/03/19 13:02:23;;;;;;;2.47;1.40;;;19.60;49.70;;;;;;5053754;28;20241;-70